Time;durP1;ratioP1;P1;durP2;ratioP2;P2;SDS_P1;SDS_P2;PMS_P1;PMS_P2;Temp;Humidity;BMP_temperature;BMP_pressure;BME280_temperature;BME280_humidity;BME280_pressure;Samples;Min_cycle;Max_cycle;Signal;HPM_P1;HPM_P2
2021/07/27 00:00:37;;;;;;;7.93;7.13;;;23.60;99.90;;;;;;5047953;28;20190;-69
2021/07/27 00:03:03;;;;;;;8.27;7.20;;;23.60;99.90;;;;;;5042241;28;20392;-69
2021/07/27 00:05:31;;;;;;;8.27;7.47;;;23.60;99.90;;;;;;5047506;28;20040;-69
2021/07/27 00:07:57;;;;;;;9.10;7.97;;;23.50;99.90;;;;;;5040336;28;20094;-69
2021/07/27 00:10:24;;;;;;;8.70;7.80;;;23.50;99.90;;;;;;5051204;28;20049;-69
2021/07/27 00:12:49;;;;;;;9.05;6.88;;;23.50;99.90;;;;;;5048316;28;20119;-69
2021/07/27 00:15:15;;;;;;;8.68;7.18;;;23.40;99.90;;;;;;5032368;28;20423;-69
2021/07/27 00:17:40;;;;;;;9.13;7.15;;;23.40;99.90;;;;;;5039018;28;20047;-69
2021/07/27 00:20:07;;;;;;;7.32;6.38;;;23.40;99.90;;;;;;5041912;28;20517;-69
2021/07/27 00:22:45;;;;;;;7.90;7.00;;;23.40;99.90;;;;;;5042584;28;20072;-69
2021/07/27 00:25:14;;;;;;;7.05;6.35;;;23.40;99.90;;;;;;5026642;28;20034;-69
2021/07/27 00:27:40;;;;;;;7.20;6.55;;;23.40;99.90;;;;;;5030050;28;20040;-69
2021/07/27 00:30:06;;;;;;;7.72;5.90;;;23.40;99.90;;;;;;5036312;28;20053;-69
2021/07/27 00:32:35;;;;;;;7.10;6.35;;;23.30;99.90;;;;;;5033314;28;20048;-69
2021/07/27 00:35:03;;;;;;;7.70;6.03;;;23.40;99.90;;;;;;5051022;28;20037;-69
2021/07/27 00:37:29;;;;;;;8.68;6.10;;;23.40;99.90;;;;;;5033038;28;20116;-69
2021/07/27 00:39:55;;;;;;;7.88;7.07;;;23.40;99.90;;;;;;5061369;28;20032;-68
2021/07/27 00:42:21;;;;;;;8.30;6.90;;;23.60;99.90;;;;;;5033645;28;20040;-70
2021/07/27 00:44:47;;;;;;;7.45;6.60;;;23.50;99.90;;;;;;5022244;28;20113;-69
2021/07/27 00:47:12;;;;;;;8.95;6.88;;;23.50;99.90;;;;;;5046509;28;20046;-69
2021/07/27 00:49:38;;;;;;;8.50;7.40;;;23.50;99.90;;;;;;5042361;28;20069;-69
2021/07/27 00:52:05;;;;;;;8.98;7.50;;;23.60;99.90;;;;;;5038758;28;20394;-69
2021/07/27 00:54:31;;;;;;;8.23;7.43;;;23.60;99.90;;;;;;5050340;28;20094;-68
2021/07/27 00:56:57;;;;;;;8.85;7.95;;;23.70;99.90;;;;;;5031149;28;20132;-68
2021/07/27 00:59:22;;;;;;;9.02;7.85;;;23.70;99.90;;;;;;5033209;28;20033;-68
2021/07/27 01:01:48;;;;;;;9.70;7.80;;;23.60;99.90;;;;;;5034527;28;20427;-68
2021/07/27 01:04:14;;;;;;;8.05;7.28;;;23.70;99.90;;;;;;5048920;28;20166;-68
2021/07/27 01:06:39;;;;;;;10.73;8.40;;;23.70;99.90;;;;;;5020205;28;20508;-68
2021/07/27 01:09:05;;;;;;;10.20;9.00;;;23.70;99.90;;;;;;5059466;28;20136;-68
2021/07/27 01:11:33;;;;;;;9.80;8.82;;;23.70;99.90;;;;;;5044115;28;20128;-70
2021/07/27 01:13:59;;;;;;;13.30;10.65;;;23.70;99.90;;;;;;5027122;28;20111;-68
2021/07/27 01:16:29;;;;;;;13.45;10.57;;;23.70;99.90;;;;;;5028474;28;20060;-68
2021/07/27 01:19:15;;;;;;;14.80;10.52;;;23.80;99.90;;;;;;5039110;28;20037;-67
2021/07/27 01:38:42;;;;;;;14.75;11.52;;;23.90;99.90;;;;;;5009224;28;20374;-68
2021/07/27 01:43:43;;;;;;;12.90;11.48;;;24.00;99.90;;;;;;5038788;28;20045;-68
2021/07/27 01:46:10;;;;;;;15.25;11.50;;;23.90;99.90;;;;;;5035025;28;20041;-68
2021/07/27 01:48:37;;;;;;;12.70;11.38;;;24.00;99.90;;;;;;5023466;28;20061;-68
2021/07/27 01:51:05;;;;;;;14.32;12.68;;;23.90;99.90;;;;;;5029512;28;20057;-68
2021/07/27 01:53:56;;;;;;;16.92;13.50;;;23.80;99.90;;;;;;5023775;28;20038;-68
2021/07/27 01:56:23;;;;;;;15.00;12.50;;;23.80;99.90;;;;;;5052453;28;20098;-69
2021/07/27 01:58:50;;;;;;;16.95;13.23;;;23.90;99.90;;;;;;5032781;28;20040;-69
2021/07/27 02:01:18;;;;;;;16.77;14.98;;;23.70;99.90;;;;;;5039728;28;20500;-68
2021/07/27 02:03:44;;;;;;;15.38;13.48;;;23.80;99.90;;;;;;5039494;28;20044;-67
2021/07/27 02:06:09;;;;;;;17.90;16.10;;;23.80;99.90;;;;;;5028022;28;20688;-69
2021/07/27 02:08:35;;;;;;;16.80;14.90;;;23.80;99.90;;;;;;5030377;28;20053;-68
2021/07/27 02:11:06;;;;;;;20.70;14.90;;;23.90;99.90;;;;;;5026683;28;20507;-67
2021/07/27 02:13:33;;;;;;;18.88;13.95;;;23.90;99.90;;;;;;5020776;28;20522;-69
2021/07/27 02:16:04;;;;;;;14.82;12.65;;;23.80;99.90;;;;;;5027114;28;20396;-68
2021/07/27 02:18:29;;;;;;;14.02;11.20;;;23.90;99.90;;;;;;5023584;28;20052;-68
2021/07/27 02:20:55;;;;;;;13.05;11.38;;;23.80;99.90;;;;;;5027504;28;20045;-66
2021/07/27 02:23:39;;;;;;;13.02;10.48;;;23.70;99.90;;;;;;5025088;28;20041;-69
2021/07/27 02:26:05;;;;;;;11.10;10.02;;;23.70;99.90;;;;;;5009253;28;20053;-69
2021/07/27 02:28:33;;;;;;;15.57;10.70;;;23.80;99.90;;;;;;5029427;28;20399;-69
2021/07/27 02:31:01;;;;;;;10.15;8.98;;;23.80;99.90;;;;;;5031761;28;20086;-69
2021/07/27 02:33:29;;;;;;;10.63;9.18;;;23.80;99.90;;;;;;5021983;28;20048;-69
2021/07/27 02:35:54;;;;;;;11.98;8.77;;;23.70;99.90;;;;;;5028380;28;20033;-69
2021/07/27 02:38:20;;;;;;;9.52;8.60;;;23.80;99.90;;;;;;5031123;28;20106;-69
2021/07/27 02:40:45;;;;;;;10.98;8.10;;;23.80;99.90;;;;;;5053366;28;20038;-69
2021/07/27 02:43:11;;;;;;;9.50;8.10;;;23.60;99.90;;;;;;5033421;28;20064;-69
2021/07/27 02:45:40;;;;;;;9.57;8.05;;;23.70;99.90;;;;;;5023398;28;20479;-69
2021/07/27 02:48:06;;;;;;;8.80;7.93;;;23.70;99.90;;;;;;5039354;28;20057;-69
2021/07/27 02:50:35;;;;;;;11.30;8.35;;;23.70;99.90;;;;;;5020541;28;20050;-69
2021/07/27 02:53:01;;;;;;;12.10;8.10;;;23.70;99.90;;;;;;5032724;28;20055;-68
2021/07/27 02:55:27;;;;;;;12.20;8.25;;;23.70;99.90;;;;;;5021475;28;20731;-69
2021/07/27 02:57:52;;;;;;;8.35;7.55;;;23.70;99.90;;;;;;5010862;28;20029;-69
2021/07/27 03:00:18;;;;;;;9.68;7.15;;;23.70;99.90;;;;;;5035557;28;20124;-69
2021/07/27 03:02:45;;;;;;;8.77;7.85;;;23.80;99.90;;;;;;5006860;28;20041;-69
2021/07/27 03:05:12;;;;;;;9.05;7.35;;;23.70;99.90;;;;;;5021989;28;20040;-69
2021/07/27 03:10:17;;;;;;;9.15;7.20;;;23.80;99.90;;;;;;5025413;28;20130;-69
2021/07/27 03:12:44;;;;;;;9.38;7.40;;;23.80;99.90;;;;;;5057954;28;20061;-69
2021/07/27 03:15:11;;;;;;;8.32;6.35;;;23.80;99.90;;;;;;5041737;28;20037;-69
2021/07/27 03:17:37;;;;;;;7.40;6.63;;;23.80;99.90;;;;;;5056886;28;20080;-69
2021/07/27 03:20:11;;;;;;;8.30;7.45;;;23.80;99.90;;;;;;5038201;28;20044;-69
2021/07/27 03:22:37;;;;;;;7.78;6.97;;;23.80;99.90;;;;;;5027025;28;20057;-69
2021/07/27 03:25:04;;;;;;;10.27;7.72;;;23.90;99.90;;;;;;5045394;28;20033;-69
2021/07/27 03:27:30;;;;;;;9.15;6.63;;;23.90;99.90;;;;;;5047071;28;20054;-68
2021/07/27 03:29:56;;;;;;;9.55;7.32;;;23.90;99.90;;;;;;5041040;28;20510;-68
2021/07/27 03:32:21;;;;;;;9.35;7.13;;;23.90;99.90;;;;;;5023566;28;20048;-69
2021/07/27 03:34:47;;;;;;;9.63;7.07;;;24.00;99.90;;;;;;5026268;28;20471;-69
2021/07/27 03:37:17;;;;;;;7.65;6.85;;;23.90;99.90;;;;;;5021374;28;20041;-69
2021/07/27 03:39:42;;;;;;;7.65;6.85;;;24.00;99.90;;;;;;5029775;28;20029;-69
2021/07/27 03:42:09;;;;;;;9.35;6.80;;;24.00;99.90;;;;;;5054538;28;20074;-69
2021/07/27 03:44:34;;;;;;;7.25;6.55;;;23.90;99.90;;;;;;5029377;28;20045;-69
2021/07/27 03:47:03;;;;;;;10.30;7.63;;;24.00;99.90;;;;;;5021942;28;20038;-69
2021/07/27 03:49:33;;;;;;;8.07;7.25;;;23.80;99.90;;;;;;5027927;28;20056;-69
2021/07/27 03:52:03;;;;;;;10.57;7.32;;;23.90;99.90;;;;;;5033564;28;20030;-69
2021/07/27 03:54:31;;;;;;;8.75;6.82;;;23.80;99.90;;;;;;5026550;28;20034;-68
2021/07/27 03:56:56;;;;;;;8.25;7.40;;;23.80;99.90;;;;;;5025682;28;20033;-68
2021/07/27 03:59:22;;;;;;;9.00;7.50;;;23.80;99.90;;;;;;5038395;28;20401;-69
2021/07/27 04:01:50;;;;;;;10.40;7.90;;;23.80;99.90;;;;;;5034493;28;20539;-69
2021/07/27 04:04:18;;;;;;;7.50;6.80;;;23.70;99.90;;;;;;5028950;28;20115;-69
2021/07/27 04:06:47;;;;;;;10.23;7.72;;;23.70;99.90;;;;;;5041403;28;20061;-69
2021/07/27 04:09:13;;;;;;;8.13;7.30;;;23.50;99.90;;;;;;5042077;28;20075;-69
2021/07/27 04:11:38;;;;;;;9.30;8.00;;;23.50;99.90;;;;;;5031738;28;20057;-69
2021/07/27 04:14:04;;;;;;;8.77;7.18;;;23.60;99.90;;;;;;5023732;28;20191;-70
2021/07/27 04:16:30;;;;;;;8.63;7.40;;;23.50;99.90;;;;;;5034192;28;20042;-68
2021/07/27 04:18:56;;;;;;;9.88;7.40;;;23.60;99.90;;;;;;5030243;28;20036;-66
2021/07/27 04:21:21;;;;;;;10.60;6.63;;;23.60;99.90;;;;;;5039807;28;20102;-69
2021/07/27 04:23:47;;;;;;;8.32;6.93;;;23.60;99.90;;;;;;5040822;28;20033;-70
2021/07/27 04:26:12;;;;;;;10.15;6.60;;;23.60;99.90;;;;;;5041551;28;20079;-69
2021/07/27 04:28:38;;;;;;;8.02;7.22;;;23.50;99.90;;;;;;5030463;28;20132;-69
2021/07/27 04:31:04;;;;;;;8.35;7.20;;;23.50;99.90;;;;;;5046028;28;20097;-69
2021/07/27 04:33:29;;;;;;;8.68;6.75;;;23.50;99.90;;;;;;5011189;28;20034;-69
2021/07/27 04:35:55;;;;;;;8.45;7.03;;;23.60;99.90;;;;;;5038088;28;20037;-69
2021/07/27 04:38:21;;;;;;;7.85;7.05;;;23.60;99.90;;;;;;5061380;28;20128;-69
2021/07/27 04:40:49;;;;;;;8.23;6.65;;;23.70;99.90;;;;;;5036751;28;20129;-69
2021/07/27 04:43:15;;;;;;;10.13;7.20;;;23.70;99.90;;;;;;5034825;28;20029;-70
2021/07/27 04:45:40;;;;;;;7.55;6.80;;;23.60;99.90;;;;;;5040206;28;20095;-69
2021/07/27 04:48:06;;;;;;;9.05;7.07;;;23.60;99.90;;;;;;5045898;28;20037;-69
2021/07/27 04:50:31;;;;;;;9.30;7.05;;;23.60;99.90;;;;;;5042797;28;20060;-68
2021/07/27 04:52:59;;;;;;;8.50;6.70;;;23.70;99.90;;;;;;5035677;28;20061;-68
2021/07/27 04:55:25;;;;;;;7.28;6.57;;;23.60;99.90;;;;;;5033481;28;20089;-69
2021/07/27 04:57:51;;;;;;;7.18;6.55;;;23.70;99.90;;;;;;5047710;28;20063;-69
2021/07/27 05:00:25;;;;;;;7.53;6.30;;;23.70;99.90;;;;;;5042190;28;20045;-69
2021/07/27 05:02:50;;;;;;;7.30;6.57;;;23.70;99.90;;;;;;5024855;28;20041;-69
2021/07/27 05:05:16;;;;;;;9.15;6.70;;;23.70;99.90;;;;;;5020120;28;20045;-69
2021/07/27 05:07:46;;;;;;;9.65;6.88;;;23.70;99.90;;;;;;5023555;28;20609;-69
2021/07/27 05:10:12;;;;;;;8.07;6.65;;;23.80;99.90;;;;;;5023817;28;20040;-69
2021/07/27 05:12:38;;;;;;;8.35;6.30;;;23.80;99.90;;;;;;5040358;28;20037;-69
2021/07/27 05:15:05;;;;;;;6.53;5.90;;;23.80;99.90;;;;;;5024908;28;20402;-69
2021/07/27 05:17:31;;;;;;;7.03;6.22;;;23.70;99.90;;;;;;5036692;28;20662;-69
2021/07/27 05:19:56;;;;;;;8.45;6.72;;;23.70;99.90;;;;;;5011318;28;20156;-61
2021/07/27 05:22:25;;;;;;;7.68;6.63;;;23.60;99.90;;;;;;5063887;28;20134;-69
2021/07/27 05:24:53;;;;;;;8.85;6.57;;;23.70;99.90;;;;;;5035906;28;20042;-69
2021/07/27 05:27:24;;;;;;;7.53;6.53;;;23.60;99.90;;;;;;5033059;28;20138;-69
2021/07/27 05:29:50;;;;;;;7.28;6.18;;;23.70;99.90;;;;;;5024911;28;20049;-69
2021/07/27 05:32:16;;;;;;;7.47;6.03;;;23.70;99.90;;;;;;5023260;28;20159;-69
2021/07/27 05:34:42;;;;;;;7.93;5.78;;;23.80;99.90;;;;;;5024771;28;20391;-69
2021/07/27 05:37:08;;;;;;;10.82;5.63;;;23.80;99.90;;;;;;5022536;28;20083;-69
2021/07/27 05:39:34;;;;;;;8.75;7.10;;;23.80;99.90;;;;;;5022619;28;20124;-71
2021/07/27 05:41:59;;;;;;;8.82;6.85;;;23.70;99.90;;;;;;5021946;28;20045;-68
2021/07/27 05:44:25;;;;;;;11.35;6.22;;;23.80;99.90;;;;;;5031214;28;20041;-69
2021/07/27 05:46:55;;;;;;;6.97;6.28;;;23.90;99.90;;;;;;5026902;28;20088;-68
2021/07/27 05:49:21;;;;;;;9.30;6.22;;;23.90;99.90;;;;;;5024510;28;20041;-68
2021/07/27 05:51:51;;;;;;;6.53;5.82;;;23.90;99.90;;;;;;5030264;28;20483;-68
2021/07/27 05:54:19;;;;;;;7.30;6.13;;;23.90;99.90;;;;;;5044065;28;20051;-69
2021/07/27 05:56:47;;;;;;;6.95;5.47;;;24.10;99.90;;;;;;5006324;28;20550;-68
2021/07/27 05:59:13;;;;;;;7.03;5.68;;;24.00;99.90;;;;;;5022837;28;20692;-68
2021/07/27 06:01:39;;;;;;;10.20;6.25;;;24.10;99.90;;;;;;5031541;28;20071;-69
2021/07/27 06:04:04;;;;;;;9.57;7.25;;;24.30;99.90;;;;;;5026295;28;20392;-69
2021/07/27 06:06:31;;;;;;;8.02;7.03;;;24.30;99.90;;;;;;5033197;28;20041;-69
2021/07/27 06:09:02;;;;;;;6.93;5.88;;;24.30;99.90;;;;;;5042973;28;21557;-68
2021/07/27 06:11:27;;;;;;;13.90;7.25;;;24.40;99.90;;;;;;5044605;28;20044;-71
2021/07/27 06:13:53;;;;;;;20.17;7.78;;;24.40;99.90;;;;;;5042328;28;20043;-74
2021/07/27 06:16:22;;;;;;;8.98;6.25;;;24.50;99.90;;;;;;5045306;28;20501;-72
2021/07/27 06:18:47;;;;;;;52.75;14.30;;;24.50;99.90;;;;;;5034442;28;22013;-72
2021/07/27 06:21:13;;;;;;;14.48;7.63;;;24.50;99.90;;;;;;5043789;28;20036;-72
2021/07/27 06:23:39;;;;;;;14.50;7.28;;;24.50;99.90;;;;;;5022045;28;20125;-73
2021/07/27 06:26:05;;;;;;;9.35;6.25;;;24.60;99.90;;;;;;5046628;28;20036;-73
2021/07/27 06:28:31;;;;;;;6.50;5.90;;;24.40;99.90;;;;;;5019134;28;20033;-73
2021/07/27 06:30:57;;;;;;;9.65;6.25;;;24.50;99.90;;;;;;5026623;28;20102;-60
2021/07/27 06:33:22;;;;;;;8.25;6.57;;;24.50;99.90;;;;;;5030084;28;20037;-73
2021/07/27 06:35:48;;;;;;;7.43;6.35;;;24.80;99.90;;;;;;5045119;28;20068;-73
2021/07/27 06:38:13;;;;;;;8.15;6.60;;;24.80;99.90;;;;;;5037461;28;20038;-73
2021/07/27 06:40:39;;;;;;;10.98;6.80;;;24.80;99.90;;;;;;5043374;28;20041;-73
2021/07/27 06:43:05;;;;;;;9.07;6.55;;;24.70;99.90;;;;;;5022349;28;20112;-72
2021/07/27 06:45:30;;;;;;;12.45;6.85;;;24.60;99.90;;;;;;5031288;28;20030;-72
2021/07/27 06:47:56;;;;;;;8.85;6.93;;;24.60;99.90;;;;;;5036734;28;20041;-72
2021/07/27 06:50:21;;;;;;;11.65;6.95;;;24.70;99.90;;;;;;5026023;28;20053;-72
2021/07/27 06:52:47;;;;;;;9.98;7.32;;;24.80;99.90;;;;;;5027285;28;20077;-72
2021/07/27 06:55:13;;;;;;;7.45;6.75;;;24.70;99.90;;;;;;5033364;28;20084;-72
2021/07/27 06:57:39;;;;;;;11.75;7.43;;;24.60;99.90;;;;;;5041345;28;20088;-72
2021/07/27 07:00:05;;;;;;;7.45;6.60;;;24.60;99.90;;;;;;5029373;28;20057;-72
2021/07/27 07:02:31;;;;;;;10.50;7.45;;;24.60;99.90;;;;;;5035977;28;20399;-72
2021/07/27 07:04:57;;;;;;;10.48;7.43;;;24.60;99.90;;;;;;5026356;28;20038;-72
2021/07/27 07:07:23;;;;;;;11.93;8.13;;;24.50;99.90;;;;;;5028954;28;20033;-72
2021/07/27 07:09:49;;;;;;;10.93;7.40;;;24.50;99.90;;;;;;5039824;28;20057;-72
2021/07/27 07:12:15;;;;;;;17.95;8.57;;;24.40;99.90;;;;;;5029706;28;20037;-72
2021/07/27 07:14:40;;;;;;;8.18;7.43;;;24.50;99.90;;;;;;5032772;28;20098;-72
2021/07/27 07:17:09;;;;;;;10.43;8.15;;;24.50;99.90;;;;;;5028275;28;20047;-71
2021/07/27 07:19:35;;;;;;;9.50;7.63;;;24.40;99.90;;;;;;5018279;28;20044;-72
2021/07/27 07:22:00;;;;;;;10.52;7.53;;;24.60;99.90;;;;;;5045926;28;20048;-71
2021/07/27 07:24:26;;;;;;;13.82;8.95;;;24.80;99.90;;;;;;5047206;28;20045;-72
2021/07/27 07:26:51;;;;;;;9.57;8.23;;;24.90;99.90;;;;;;5045098;28;20029;-72
2021/07/27 07:29:17;;;;;;;11.27;8.23;;;25.00;99.90;;;;;;5036017;28;20481;-72
2021/07/27 07:31:42;;;;;;;12.50;7.57;;;25.10;99.90;;;;;;5041073;28;20127;-72
2021/07/27 07:34:08;;;;;;;13.52;8.07;;;25.20;99.90;;;;;;5043861;28;20048;-72
2021/07/27 07:36:33;;;;;;;10.50;9.30;;;25.30;99.90;;;;;;5028761;28;20348;-72
2021/07/27 07:38:59;;;;;;;9.38;7.47;;;25.40;99.90;;;;;;5029483;28;20029;-72
2021/07/27 07:41:26;;;;;;;10.68;8.32;;;25.50;99.90;;;;;;5030351;28;20033;-72
2021/07/27 07:43:54;;;;;;;9.88;8.82;;;25.60;99.90;;;;;;5017015;28;20033;-72
2021/07/27 07:46:20;;;;;;;10.90;8.00;;;25.50;99.90;;;;;;5020214;28;20565;-72
2021/07/27 07:48:45;;;;;;;30.10;11.40;;;25.50;99.90;;;;;;5027392;28;20041;-72
2021/07/27 07:51:11;;;;;;;24.27;10.27;;;25.50;99.90;;;;;;5043452;28;20402;-72
2021/07/27 07:53:37;;;;;;;18.13;9.45;;;25.40;99.90;;;;;;5047365;28;20268;-71
2021/07/27 07:56:06;;;;;;;13.43;9.00;;;25.40;99.90;;;;;;5037266;28;20036;-72
2021/07/27 07:58:32;;;;;;;15.13;9.88;;;25.40;99.90;;;;;;5037180;28;20048;-71
2021/07/27 08:00:58;;;;;;;13.75;9.43;;;25.40;99.90;;;;;;5046992;28;20040;-71
2021/07/27 08:03:26;;;;;;;16.55;10.20;;;25.60;99.90;;;;;;5033384;28;20033;-72
2021/07/27 08:05:52;;;;;;;17.30;10.07;;;25.80;99.90;;;;;;5039465;28;20117;-72
2021/07/27 08:08:20;;;;;;;15.00;9.93;;;25.80;99.90;;;;;;5034121;28;20120;-72
2021/07/27 08:10:45;;;;;;;15.27;12.07;;;25.90;99.90;;;;;;5028362;28;20041;-72
2021/07/27 08:13:11;;;;;;;12.90;10.52;;;25.90;99.90;;;;;;5025122;28;20038;-73
2021/07/27 08:15:37;;;;;;;15.27;11.75;;;25.80;99.90;;;;;;5029437;28;20037;-72
2021/07/27 08:18:02;;;;;;;17.08;11.27;;;25.90;99.90;;;;;;5027260;28;20038;-72
2021/07/27 08:20:29;;;;;;;15.90;11.20;;;26.00;99.90;;;;;;5028527;28;20060;-71
2021/07/27 08:22:58;;;;;;;13.30;11.35;;;26.10;99.90;;;;;;5074730;28;20394;-72
2021/07/27 08:25:24;;;;;;;13.30;11.32;;;26.20;99.90;;;;;;5042754;28;20034;-73
2021/07/27 08:27:50;;;;;;;14.43;11.38;;;26.30;99.90;;;;;;5036995;28;20121;-72
2021/07/27 08:30:17;;;;;;;16.08;10.57;;;26.40;99.90;;;;;;5031062;28;20045;-72
2021/07/27 08:32:50;;;;;;;18.25;12.70;;;26.40;99.90;;;;;;5039492;28;20482;-72
2021/07/27 08:35:19;;;;;;;14.02;12.63;;;26.30;99.90;;;;;;5031145;28;20060;-72
2021/07/27 08:37:46;;;;;;;20.05;12.93;;;26.40;99.90;;;;;;5038212;28;20450;-72
2021/07/27 08:40:28;;;;;;;22.70;15.82;;;26.60;99.90;;;;;;5049300;28;20040;-72
2021/07/27 08:42:56;;;;;;;15.18;13.57;;;26.80;99.90;;;;;;5036840;28;20109;-72
2021/07/27 08:45:22;;;;;;;17.55;13.65;;;26.90;99.90;;;;;;5036383;28;20042;-73
2021/07/27 08:47:49;;;;;;;55.85;16.55;;;27.00;99.90;;;;;;5042448;28;20371;-73
2021/07/27 08:50:16;;;;;;;44.20;15.30;;;26.90;99.90;;;;;;5020892;28;20076;-73
2021/07/27 08:52:42;;;;;;;23.98;12.75;;;27.00;99.90;;;;;;5047175;28;20037;-73
2021/07/27 08:55:09;;;;;;;26.75;14.63;;;27.00;99.90;;;;;;5040277;28;21175;-73
2021/07/27 08:57:35;;;;;;;22.10;14.30;;;27.00;99.90;;;;;;5043131;28;20090;-73
2021/07/27 09:00:01;;;;;;;19.05;12.80;;;27.10;99.90;;;;;;5023076;28;20034;-72
2021/07/27 09:02:31;;;;;;;18.92;14.05;;;27.00;99.90;;;;;;5027251;28;20036;-73
2021/07/27 09:05:13;;;;;;;15.52;13.23;;;27.00;99.90;;;;;;5041358;28;20501;-73
2021/07/27 09:07:39;;;;;;;18.10;12.75;;;27.10;99.90;;;;;;5011805;28;20160;-73
2021/07/27 09:10:20;;;;;;;17.25;12.98;;;27.10;99.90;;;;;;5024104;28;20038;-73
2021/07/27 09:13:15;;;;;;;18.10;12.32;;;27.10;99.90;;;;;;5024404;28;20116;-72
2021/07/27 09:15:42;;;;;;;17.20;13.65;;;27.00;99.90;;;;;;5000604;28;20491;-73
2021/07/27 09:18:15;;;;;;;16.50;13.77;;;26.90;99.90;;;;;;5036054;28;20108;-73
2021/07/27 09:20:43;;;;;;;22.17;15.52;;;26.90;99.90;;;;;;5036757;28;20076;-73
2021/07/27 09:23:14;;;;;;;19.42;15.00;;;26.80;99.90;;;;;;5046840;28;20045;-73
2021/07/27 09:25:45;;;;;;;47.03;30.13;;;26.80;99.90;;;;;;5043710;28;20051;-72
2021/07/27 09:28:12;;;;;;;20.67;15.80;;;26.90;99.90;;;;;;5040727;28;20478;-72
2021/07/27 09:30:39;;;;;;;22.35;16.08;;;27.10;99.90;;;;;;5041841;28;20042;-72
2021/07/27 09:33:06;;;;;;;70.43;22.50;;;27.10;99.90;;;;;;5039357;28;20044;-72
2021/07/27 09:35:33;;;;;;;23.05;15.30;;;27.20;99.90;;;;;;5030621;28;20051;-71
2021/07/27 09:38:09;;;;;;;23.38;14.38;;;27.20;99.90;;;;;;5025825;28;20622;-70
2021/07/27 09:40:51;;;;;;;21.02;12.35;;;27.30;99.90;;;;;;5038221;28;20482;-72
2021/07/27 09:43:18;;;;;;;17.67;13.45;;;27.70;99.90;;;;;;5040527;28;20048;-72
2021/07/27 09:45:51;;;;;;;23.15;15.13;;;27.80;99.90;;;;;;5022523;28;20487;-71
2021/07/27 09:48:18;;;;;;;19.15;14.32;;;27.60;99.90;;;;;;5040280;28;20037;-73
2021/07/27 09:50:51;;;;;;;15.73;13.98;;;27.40;99.90;;;;;;5037698;28;20042;-72
2021/07/27 09:53:17;;;;;;;21.23;14.70;;;27.50;99.90;;;;;;5046666;28;20044;-71
2021/07/27 09:55:44;;;;;;;17.95;14.15;;;27.40;99.90;;;;;;5041149;28;20052;-72
2021/07/27 09:58:10;;;;;;;20.67;14.38;;;27.30;99.90;;;;;;5025356;28;20545;-71
2021/07/27 10:00:49;;;;;;;17.15;13.02;;;27.40;99.90;;;;;;5041074;28;20045;-71
2021/07/27 10:03:20;;;;;;;11.05;9.32;;;27.40;99.90;;;;;;5040798;28;20415;-72
2021/07/27 10:06:00;;;;;;;13.20;8.30;;;27.40;99.90;;;;;;5029555;28;20038;-72
2021/07/27 10:08:34;;;;;;;10.85;7.82;;;27.30;99.90;;;;;;5039681;28;20033;-72
2021/07/27 10:11:07;;;;;;;12.40;7.07;;;27.30;99.90;;;;;;5024888;28;20046;-72
2021/07/27 10:13:37;;;;;;;9.30;7.03;;;27.30;99.90;;;;;;5034558;28;20435;-70
2021/07/27 10:16:03;;;;;;;8.27;5.97;;;27.30;99.90;;;;;;5045311;28;20106;-71
2021/07/27 10:18:34;;;;;;;10.48;5.32;;;27.30;99.90;;;;;;5030718;28;20120;-71
2021/07/27 10:21:27;;;;;;;8.55;5.78;;;27.30;99.90;;;;;;5033180;28;20037;-71
2021/07/27 10:24:12;;;;;;;8.32;5.90;;;27.40;99.90;;;;;;5042626;28;20049;-72
2021/07/27 10:26:38;;;;;;;9.15;6.25;;;27.20;99.90;;;;;;5003842;28;20048;-72
2021/07/27 10:29:04;;;;;;;7.78;5.35;;;27.40;99.90;;;;;;5028324;28;20131;-71
2021/07/27 10:31:38;;;;;;;11.02;5.57;;;27.80;99.90;;;;;;5025454;28;20490;-71
2021/07/27 10:34:06;;;;;;;11.18;6.28;;;27.90;99.90;;;;;;5025150;28;20049;-71
2021/07/27 10:36:40;;;;;;;13.38;9.77;;;27.80;99.90;;;;;;5027979;28;20483;-71
2021/07/27 10:39:15;;;;;;;16.17;13.70;;;27.70;99.90;;;;;;5038853;28;20044;-71
2021/07/27 10:41:49;;;;;;;12.90;9.85;;;28.00;99.90;;;;;;5026886;28;20037;-73
2021/07/27 10:44:23;;;;;;;12.18;9.13;;;28.30;99.90;;;;;;5023881;28;20026;-72
2021/07/27 10:46:50;;;;;;;10.13;8.13;;;28.40;99.90;;;;;;5026192;28;20033;-72
2021/07/27 10:49:25;;;;;;;12.50;8.40;;;28.20;99.90;;;;;;5039770;28;20051;-72
2021/07/27 10:52:01;;;;;;;11.50;9.18;;;28.20;99.90;;;;;;5045696;28;20041;-73
2021/07/27 10:54:33;;;;;;;14.63;9.82;;;28.30;99.90;;;;;;5038658;28;20028;-72
2021/07/27 10:57:04;;;;;;;10.63;9.52;;;28.50;99.90;;;;;;5057967;28;20090;-70
2021/07/27 10:59:32;;;;;;;12.77;9.75;;;28.70;99.90;;;;;;5036811;28;20029;-72
2021/07/27 11:01:59;;;;;;;13.98;10.02;;;28.70;99.90;;;;;;5043503;28;20125;-73
2021/07/27 11:04:28;;;;;;;17.02;10.00;;;29.00;99.90;;;;;;5024371;28;20033;-73
2021/07/27 11:07:09;;;;;;;12.02;9.05;;;29.40;99.90;;;;;;5025654;28;20037;-72
2021/07/27 11:09:44;;;;;;;13.63;10.20;;;29.50;99.90;;;;;;5011869;28;20124;-74
2021/07/27 11:12:10;;;;;;;15.63;10.95;;;29.50;99.90;;;;;;5035757;28;20036;-64
2021/07/27 11:14:36;;;;;;;15.85;10.18;;;29.80;99.90;;;;;;5036552;28;20053;-65
2021/07/27 11:17:02;;;;;;;16.50;10.95;;;30.30;99.90;;;;;;5027340;28;20115;-62
2021/07/27 11:19:31;;;;;;;17.63;11.82;;;30.00;99.90;;;;;;5041218;28;20041;-56
2021/07/27 11:21:58;;;;;;;14.95;10.02;;;30.50;99.90;;;;;;5039855;28;20092;-62
2021/07/27 11:24:26;;;;;;;16.15;11.70;;;31.00;99.90;;;;;;5022961;28;20091;-70
2021/07/27 11:26:53;;;;;;;12.13;9.55;;;30.50;99.90;;;;;;5037012;28;20102;-63
2021/07/27 11:29:20;;;;;;;19.35;10.77;;;30.40;99.90;;;;;;5042403;28;20102;-65
2021/07/27 11:31:47;;;;;;;13.43;8.98;;;30.50;99.90;;;;;;5049410;28;20510;-69
2021/07/27 11:34:13;;;;;;;14.27;9.73;;;30.90;99.00;;;;;;5042029;28;20486;-74
2021/07/27 11:36:39;;;;;;;13.52;10.13;;;30.70;99.10;;;;;;5040033;28;20112;-75
2021/07/27 11:39:06;;;;;;;19.80;11.55;;;30.90;99.30;;;;;;5043758;28;20120;-76
2021/07/27 11:41:31;;;;;;;16.88;12.30;;;30.80;99.20;;;;;;5042186;28;20140;-76
2021/07/27 11:43:57;;;;;;;16.45;10.63;;;30.90;98.80;;;;;;5049133;28;20562;-77
2021/07/27 11:46:31;;;;;;;16.35;11.20;;;31.50;97.40;;;;;;5047394;28;20056;-77
2021/07/27 11:48:56;;;;;;;;;;;31.50;96.60;;;;;;5017892;28;20041;-78
2021/07/27 11:51:32;;;;;;;13.45;10.25;;;31.80;95.80;;;;;;5013087;28;19920;-78
2021/07/27 11:53:58;;;;;;;19.30;11.10;;;31.50;95.60;;;;;;5042450;28;20120;-78
2021/07/27 11:56:24;;;;;;;15.02;10.75;;;31.30;97.20;;;;;;5030434;28;20485;-77
2021/07/27 11:59:04;;;;;;;16.50;11.50;;;30.90;98.20;;;;;;5036992;28;20116;-78
2021/07/27 12:01:39;;;;;;;20.23;12.30;;;30.40;99.30;;;;;;5025737;28;20030;-77
2021/07/27 12:04:05;;;;;;;14.10;10.73;;;30.20;99.10;;;;;;5034966;28;20045;-79
2021/07/27 12:06:32;;;;;;;20.00;11.50;;;29.80;99.90;;;;;;5039952;28;20040;-79
2021/07/27 12:09:01;;;;;;;15.18;10.57;;;29.40;99.90;;;;;;5037195;28;20041;-79
2021/07/27 12:11:27;;;;;;;16.30;11.43;;;29.10;99.90;;;;;;5032147;28;20045;-79
2021/07/27 12:13:52;;;;;;;46.45;14.55;;;28.90;99.90;;;;;;5040419;28;20353;-78
2021/07/27 12:16:18;;;;;;;16.10;11.60;;;28.90;99.90;;;;;;5025736;28;20436;-79
2021/07/27 12:18:43;;;;;;;19.85;11.38;;;28.80;99.90;;;;;;5045454;28;20033;-79
2021/07/27 12:21:09;;;;;;;17.25;10.27;;;29.10;99.90;;;;;;5029503;28;20152;-78
2021/07/27 12:23:34;;;;;;;15.85;10.07;;;29.80;99.90;;;;;;5017302;28;20053;-78
2021/07/27 12:26:06;;;;;;;12.23;10.05;;;29.60;99.90;;;;;;5030241;28;20041;-78
2021/07/27 12:28:33;;;;;;;12.93;10.85;;;29.50;99.90;;;;;;5025175;28;20042;-78
2021/07/27 12:30:58;;;;;;;14.23;9.35;;;29.40;99.90;;;;;;5017419;28;20046;-78
2021/07/27 12:33:24;;;;;;;25.45;14.52;;;30.00;99.90;;;;;;5020808;28;20095;-76
2021/07/27 12:35:49;;;;;;;33.55;13.90;;;31.00;99.90;;;;;;5031994;28;20069;-75
2021/07/27 12:38:15;;;;;;;18.70;13.50;;;31.70;99.90;;;;;;5024573;28;20025;-74
2021/07/27 12:40:41;;;;;;;19.40;12.52;;;32.00;99.90;;;;;;5028313;28;20058;-75
2021/07/27 12:43:08;;;;;;;15.43;11.93;;;;;;;;;;5020177;28;20045;-76
2021/07/27 12:45:33;;;;;;;13.40;10.55;;;33.30;99.90;;;;;;5033007;28;20084;-75
2021/07/27 12:48:00;;;;;;;20.67;13.48;;;34.60;98.60;;;;;;5021896;28;20038;-69
2021/07/27 12:50:25;;;;;;;22.30;13.05;;;35.20;96.50;;;;;;5012382;28;20416;-75
2021/07/27 12:52:51;;;;;;;16.58;12.23;;;36.00;95.80;;;;;;5038195;28;20069;-76
2021/07/27 12:55:17;;;;;;;16.98;11.43;;;36.90;91.40;;;;;;5017942;28;20452;-76
2021/07/27 12:57:42;;;;;;;34.28;14.98;;;36.80;90.30;;;;;;5017196;28;20148;-77
2021/07/27 13:00:09;;;;;;;18.23;11.57;;;36.90;88.50;;;;;;5026459;28;20033;-76
2021/07/27 13:02:34;;;;;;;19.42;13.52;;;36.90;85.10;;;;;;5009853;28;20539;-77